createdAt,value
2019-01-30T00:01:30.881Z,29.20
2019-01-30T00:03:59.777Z,26.97
2019-01-30T00:06:28.505Z,27.48
2019-01-30T00:08:57.257Z,26.23
2019-01-30T00:11:26.029Z,29.25
2019-01-30T00:13:54.804Z,30.15
2019-01-30T00:16:23.578Z,32.78
2019-01-30T00:18:52.358Z,30.57
2019-01-30T00:21:21.147Z,24.45
2019-01-30T00:23:49.922Z,33.15
2019-01-30T00:26:18.788Z,33.23
2019-01-30T00:28:47.658Z,35.50
2019-01-30T00:31:16.742Z,26.42
2019-01-30T00:33:45.521Z,29.60
2019-01-30T00:36:14.307Z,26.62
2019-01-30T00:38:43.125Z,29.02
2019-01-30T00:41:11.935Z,28.57
2019-01-30T00:43:40.690Z,35.20
2019-01-30T00:46:09.526Z,29.07
2019-01-30T00:48:38.374Z,33.25
2019-01-30T00:51:07.147Z,33.13
2019-01-30T00:53:36.212Z,35.20
2019-01-30T00:56:05.393Z,29.75
2019-01-30T00:58:34.315Z,27.42
2019-01-30T01:01:03.153Z,27.87
2019-01-30T01:03:31.914Z,33.33
2019-01-30T01:06:00.688Z,31.48
2019-01-30T01:08:29.569Z,29.12
2019-01-30T01:10:58.361Z,30.08
2019-01-30T01:13:27.221Z,28.52
2019-01-30T01:15:56.354Z,32.55
2019-01-30T01:18:25.135Z,32.75
2019-01-30T01:20:53.989Z,38.15
2019-01-30T01:23:22.804Z,45.25
2019-01-30T01:25:51.605Z,31.85
2019-01-30T01:28:20.362Z,32.05
2019-01-30T01:30:49.165Z,33.40
2019-01-30T01:33:18.017Z,32.03
2019-01-30T01:35:46.909Z,28.27
2019-01-30T01:38:15.717Z,30.37
2019-01-30T01:40:44.561Z,31.60
2019-01-30T01:43:13.471Z,31.23
2019-01-30T01:45:42.233Z,30.30
2019-01-30T01:48:11.002Z,33.75
2019-01-30T01:50:39.829Z,32.35
2019-01-30T01:53:08.665Z,26.05
2019-01-30T01:55:37.525Z,26.33
2019-01-30T01:58:06.691Z,30.35
2019-01-30T02:00:35.856Z,28.25
2019-01-30T02:03:05.271Z,35.23
2019-01-30T02:05:34.054Z,28.05
2019-01-30T02:08:02.837Z,31.45
2019-01-30T02:10:31.653Z,30.60
2019-01-30T02:13:00.469Z,32.67
2019-01-30T02:15:29.256Z,32.35
2019-01-30T02:17:58.063Z,30.77
2019-01-30T02:20:32.425Z,35.40
2019-01-30T02:23:01.221Z,36.00
2019-01-30T02:25:29.981Z,30.27
2019-01-30T02:27:58.777Z,26.27
2019-01-30T02:30:29.564Z,33.13
2019-01-30T02:32:58.534Z,34.40
2019-01-30T02:35:27.564Z,37.60
2019-01-30T02:37:56.434Z,36.98
2019-01-30T02:40:26.140Z,30.52
2019-01-30T02:42:54.926Z,33.38
2019-01-30T02:45:25.573Z,30.75
2019-01-30T02:47:54.411Z,29.57
2019-01-30T02:50:23.422Z,33.20
2019-01-30T02:52:52.249Z,31.70
2019-01-30T02:55:22.307Z,25.82
2019-01-30T02:57:51.424Z,34.00
2019-01-30T03:00:26.521Z,30.23
2019-01-30T03:02:55.431Z,30.00
2019-01-30T03:05:24.548Z,29.48
2019-01-30T03:07:53.433Z,32.08
2019-01-30T03:10:23.446Z,30.37
2019-01-30T03:12:52.335Z,36.17
2019-01-30T03:15:21.670Z,32.13
2019-01-30T03:17:50.458Z,30.70
2019-01-30T03:20:27.068Z,28.15
2019-01-30T03:22:55.973Z,32.90
2019-01-30T03:25:26.184Z,24.92
2019-01-30T03:27:55.277Z,28.12
2019-01-30T03:30:26.692Z,28.55
2019-01-30T03:32:55.631Z,28.95
2019-01-30T03:35:24.633Z,25.55
2019-01-30T03:37:53.769Z,28.07
2019-01-30T03:40:23.373Z,31.02
2019-01-30T03:42:52.315Z,27.00
2019-01-30T03:45:22.970Z,25.20
2019-01-30T03:47:51.923Z,32.10
2019-01-30T03:50:20.776Z,24.57
2019-01-30T03:52:49.569Z,28.07
2019-01-30T03:55:21.855Z,25.70
2019-01-30T03:57:50.639Z,28.62
2019-01-30T04:00:22.026Z,27.00
2019-01-30T04:02:51.175Z,26.20
2019-01-30T04:05:19.955Z,29.02
2019-01-30T04:07:49.210Z,31.05
2019-01-30T04:10:20.040Z,25.43
2019-01-30T04:12:48.956Z,28.35
2019-01-30T04:15:17.776Z,29.57
2019-01-30T04:17:46.526Z,35.78
2019-01-30T04:20:17.431Z,31.02
2019-01-30T04:22:46.276Z,28.25
2019-01-30T04:25:15.248Z,28.38
2019-01-30T04:27:44.411Z,32.53
2019-01-30T04:30:16.329Z,30.82
2019-01-30T04:32:45.123Z,27.17
2019-01-30T04:35:33.229Z,31.42
2019-01-30T04:38:21.050Z,54.05
2019-01-30T04:41:08.870Z,25.45
2019-01-30T04:43:56.697Z,27.00
2019-01-30T04:46:44.511Z,27.42
2019-01-30T04:49:32.371Z,28.67
2019-01-30T04:52:20.486Z,27.30
2019-01-30T04:55:08.269Z,29.00
2019-01-30T05:00:48.256Z,29.55
2019-01-30T05:06:29.130Z,30.02
2019-01-30T05:59:57.280Z,32.55
2019-01-30T06:02:38.531Z,33.08
2019-01-30T06:23:25.463Z,28.07
2019-01-30T06:26:06.941Z,29.40
2019-01-30T06:31:48.226Z,33.08
2019-01-30T06:34:36.052Z,28.67
2019-01-30T06:37:23.942Z,29.12
2019-01-30T06:40:11.790Z,26.73
2019-01-30T06:42:59.579Z,29.32
2019-01-30T06:45:47.684Z,28.27
2019-01-30T06:48:35.527Z,27.98
2019-01-30T06:51:23.333Z,30.48
2019-01-30T06:54:11.173Z,25.50
2019-01-30T07:06:02.295Z,28.32
2019-01-30T07:29:36.910Z,21.57
2019-01-30T07:44:14.014Z,22.22
2019-01-30T07:46:54.564Z,23.55
2019-01-30T07:49:34.733Z,22.15
2019-01-30T07:52:15.674Z,27.37
2019-01-30T07:54:56.799Z,28.50
2019-01-30T08:36:26.443Z,25.37
2019-01-30T08:39:14.605Z,34.92
2019-01-30T08:42:02.473Z,27.52
2019-01-30T08:44:50.836Z,29.30
2019-01-30T08:47:39.424Z,22.32
2019-01-30T08:50:27.219Z,25.05
2019-01-30T08:53:15.017Z,27.48
2019-01-30T09:02:09.337Z,24.63
2019-01-30T09:10:40.098Z,32.60
2019-01-30T09:13:28.068Z,28.10
2019-01-30T09:15:56.950Z,26.52
2019-01-30T09:18:25.762Z,36.65
2019-01-30T09:20:54.524Z,23.20
2019-01-30T09:23:23.291Z,28.92
2019-01-30T09:25:52.041Z,30.62
2019-01-30T09:28:20.784Z,28.27
2019-01-30T09:31:08.579Z,31.07
2019-01-30T09:33:37.419Z,30.08
2019-01-30T09:36:25.307Z,27.55
2019-01-30T09:39:13.173Z,26.97
2019-01-30T09:42:01.082Z,29.55
2019-01-30T09:44:49.147Z,30.37
2019-01-30T09:47:36.922Z,26.37
2019-01-30T09:50:24.791Z,27.60
2019-01-30T09:53:12.835Z,25.25
2019-01-30T09:56:00.654Z,24.98
2019-01-30T09:58:29.523Z,25.08
2019-01-30T10:01:17.336Z,26.00
2019-01-30T10:04:05.486Z,31.80
2019-01-30T10:06:53.571Z,27.58
2019-01-30T10:09:41.380Z,20.90
2019-01-30T10:12:29.201Z,29.25
2019-01-30T10:15:17.046Z,26.10
2019-01-30T10:18:04.972Z,25.32
2019-01-30T10:20:53.104Z,22.20
2019-01-30T10:23:41.285Z,21.52
2019-01-30T10:26:29.562Z,27.87
2019-01-30T10:29:17.645Z,20.52
2019-01-30T10:32:05.820Z,21.05
2019-01-30T10:34:53.943Z,20.55
2019-01-30T10:37:42.110Z,18.57
2019-01-30T10:40:30.074Z,25.35
2019-01-30T10:43:17.838Z,18.10
2019-01-30T10:46:05.653Z,21.17
2019-01-30T10:48:53.439Z,20.30
2019-01-30T10:51:41.292Z,25.05
2019-01-30T10:54:29.146Z,18.65
2019-01-30T10:57:16.960Z,21.15
2019-01-30T11:35:53.458Z,18.73
2019-01-30T11:56:56.696Z,20.85
2019-01-30T12:20:51.983Z,20.17
2019-01-30T12:53:42.109Z,21.25
2019-01-30T13:26:16.096Z,27.70
2019-01-30T13:29:03.886Z,28.85
2019-01-30T13:31:51.744Z,22.55
2019-01-30T13:34:48.632Z,31.30
2019-01-30T13:37:29.337Z,31.30
2019-01-30T13:40:17.233Z,29.98
2019-01-30T13:43:05.083Z,30.77
2019-01-30T13:45:53.100Z,30.43
2019-01-30T13:48:41.285Z,30.17
2019-01-30T13:51:29.214Z,29.05
2019-01-30T13:54:17.126Z,27.20
2019-01-30T13:57:05.300Z,32.00
2019-01-30T14:29:58.857Z,29.85
2019-01-30T14:32:39.420Z,23.85
2019-01-30T14:35:20.274Z,26.07
2019-01-30T14:38:00.790Z,25.23
2019-01-30T14:40:39.433Z,27.37
2019-01-30T14:43:20.055Z,22.50
2019-01-30T15:03:55.779Z,24.18
2019-01-30T15:54:44.760Z,19.60
2019-01-30T16:18:37.420Z,19.65
2019-01-30T17:21:03.021Z,21.07
2019-01-30T18:11:40.798Z,21.80
2019-01-30T18:20:17.595Z,28.40
2019-01-30T19:08:01.654Z,34.30
2019-01-30T19:31:36.491Z,35.25
2019-01-30T19:34:24.323Z,36.55
2019-01-30T19:37:12.190Z,35.68
2019-01-30T19:39:59.990Z,40.60
2019-01-30T19:42:47.768Z,35.60
2019-01-30T19:45:35.549Z,40.95
2019-01-30T19:48:23.439Z,34.27
2019-01-30T19:51:12.029Z,38.28
2019-01-30T19:54:00.166Z,38.98
2019-01-30T19:57:02.897Z,36.83
2019-01-30T19:59:38.645Z,40.78
2019-01-30T20:08:33.182Z,50.65
2019-01-30T20:23:09.562Z,44.27
2019-01-30T20:58:58.335Z,52.43
2019-01-30T21:01:39.854Z,54.48
2019-01-30T21:13:02.013Z,56.23
2019-01-30T21:15:42.765Z,66.55
2019-01-30T21:24:22.917Z,53.08
2019-01-30T21:39:05.637Z,57.75
2019-01-30T21:44:59.660Z,54.80
2019-01-30T21:56:51.588Z,56.55
2019-01-30T22:08:42.911Z,50.98
2019-01-30T22:35:29.042Z,57.23
2019-01-30T22:37:57.922Z,57.83
2019-01-30T22:40:26.902Z,66.97
2019-01-30T22:42:55.654Z,68.62
2019-01-30T22:45:24.500Z,61.75
2019-01-30T22:47:53.660Z,63.40
2019-01-30T22:50:23.251Z,73.83
2019-01-30T22:52:52.101Z,62.58
2019-01-30T22:55:22.598Z,64.22
2019-01-30T22:57:51.574Z,63.65
2019-01-30T23:00:23.603Z,76.65
2019-01-30T23:02:52.385Z,67.78
2019-01-30T23:05:48.196Z,63.42
2019-01-30T23:08:23.224Z,71.22
2019-01-30T23:11:03.698Z,58.85
2019-01-30T23:13:35.567Z,78.78
2019-01-30T23:16:19.553Z,67.50
2019-01-30T23:18:53.919Z,63.80
2019-01-30T23:21:53.021Z,69.32
2019-01-30T23:24:27.589Z,74.82
2019-01-30T23:27:05.090Z,75.47
2019-01-30T23:29:48.999Z,66.55
2019-01-30T23:32:23.480Z,66.62
2019-01-30T23:35:01.266Z,62.03
2019-01-30T23:37:42.347Z,71.40
2019-01-30T23:40:14.196Z,63.78
2019-01-30T23:43:00.939Z,66.62
2019-01-30T23:45:35.532Z,64.95
2019-01-30T23:48:26.881Z,65.80
2019-01-30T23:51:07.818Z,66.22
2019-01-30T23:53:54.582Z,57.98
2019-01-30T23:56:44.120Z,66.05
2019-01-30T23:59:16.096Z,68.07
